createdAt,value
2022-11-28T00:00:53.070Z,71.26
2022-11-28T00:01:53.094Z,71.20
2022-11-28T00:02:53.158Z,71.35
2022-11-28T00:03:53.037Z,71.06
2022-11-28T00:04:53.021Z,71.04
2022-11-28T00:05:53.032Z,71.13
2022-11-28T00:06:53.037Z,71.31
2022-11-28T00:07:53.094Z,71.44
2022-11-28T00:08:52.994Z,71.58
2022-11-28T00:09:52.972Z,71.69
2022-11-28T00:10:52.957Z,71.57
2022-11-28T00:11:52.963Z,71.47
2022-11-28T00:12:52.968Z,71.36
2022-11-28T00:13:52.924Z,71.40
2022-11-28T00:14:52.907Z,71.59
2022-11-28T00:15:52.949Z,71.82
2022-11-28T00:16:52.899Z,71.95
2022-11-28T00:17:52.911Z,72.02
2022-11-28T00:18:52.906Z,72.03
2022-11-28T00:19:52.860Z,72.02
2022-11-28T00:20:52.846Z,72.04
2022-11-28T00:21:52.845Z,71.92
2022-11-28T00:22:52.843Z,71.78
2022-11-28T00:23:52.818Z,71.75
2022-11-28T00:24:52.830Z,71.85
2022-11-28T00:25:52.801Z,71.85
2022-11-28T00:26:52.789Z,71.92
2022-11-28T00:27:52.811Z,71.97
2022-11-28T00:28:52.779Z,72.01
2022-11-28T00:29:52.755Z,71.95
2022-11-28T00:30:52.751Z,71.85
2022-11-28T00:31:52.773Z,71.94
2022-11-28T00:32:52.746Z,72.00
2022-11-28T00:33:52.721Z,71.91
2022-11-28T00:34:52.707Z,71.61
2022-11-28T00:35:52.695Z,71.52
2022-11-28T00:36:52.684Z,71.59
2022-11-28T00:37:52.685Z,71.76
2022-11-28T00:38:52.661Z,71.92
2022-11-28T00:39:52.663Z,72.03
2022-11-28T00:40:52.656Z,72.12
2022-11-28T00:41:52.624Z,72.14
2022-11-28T00:42:52.630Z,71.97
2022-11-28T00:43:52.609Z,71.97
2022-11-28T00:44:52.594Z,72.00
2022-11-28T00:45:52.656Z,72.00
2022-11-28T00:46:52.588Z,72.04
2022-11-28T00:47:52.577Z,72.09
2022-11-28T00:48:52.545Z,71.96
2022-11-28T00:49:52.535Z,71.92
2022-11-28T00:50:52.529Z,71.97
2022-11-28T00:51:52.525Z,72.05
2022-11-28T00:52:52.610Z,72.08
2022-11-28T00:53:52.503Z,71.91
2022-11-28T00:54:52.493Z,71.96
2022-11-28T00:55:52.491Z,72.02
2022-11-28T00:56:52.497Z,72.01
2022-11-28T00:57:52.476Z,71.99
2022-11-28T00:58:52.465Z,72.00
2022-11-28T00:59:52.443Z,71.98
2022-11-28T01:00:52.494Z,71.88
2022-11-28T01:01:52.456Z,71.79
2022-11-28T01:02:52.416Z,71.79
2022-11-28T01:03:52.406Z,71.83
2022-11-28T01:04:52.388Z,71.85
2022-11-28T01:05:52.363Z,71.82
2022-11-28T01:06:52.368Z,71.77
2022-11-28T01:07:52.404Z,71.87
2022-11-28T01:08:52.338Z,71.94
2022-11-28T01:09:52.340Z,71.98
2022-11-28T01:10:52.333Z,71.90
2022-11-28T01:11:52.304Z,71.92
2022-11-28T01:12:52.321Z,71.93
2022-11-28T01:13:52.281Z,71.86
2022-11-28T01:14:52.291Z,71.82
2022-11-28T01:15:52.279Z,71.74
2022-11-28T01:16:52.304Z,71.76
2022-11-28T01:17:52.234Z,71.84
2022-11-28T01:18:52.337Z,71.88
2022-11-28T01:19:52.236Z,71.96
2022-11-28T01:20:53.164Z,71.95
2022-11-28T01:21:52.196Z,71.96
2022-11-28T01:22:52.185Z,71.98
2022-11-28T01:23:52.221Z,72.01
2022-11-28T01:24:52.180Z,71.82
2022-11-28T01:25:52.161Z,71.90
2022-11-28T01:26:52.162Z,72.05
2022-11-28T01:27:52.135Z,72.22
2022-11-28T01:28:52.151Z,72.37
2022-11-28T01:29:52.142Z,72.52
2022-11-28T01:30:52.101Z,72.59
2022-11-28T01:31:52.194Z,72.69
2022-11-28T01:32:52.078Z,72.71
2022-11-28T01:33:52.096Z,72.68
2022-11-28T01:34:52.135Z,72.78
2022-11-28T01:35:52.063Z,72.80
2022-11-28T01:36:52.031Z,72.84
2022-11-28T01:37:52.041Z,72.87
2022-11-28T01:38:52.042Z,72.81
2022-11-28T01:39:52.005Z,72.71
2022-11-28T01:40:52.010Z,72.78
2022-11-28T01:41:52.060Z,72.87
2022-11-28T01:42:51.985Z,72.92
2022-11-28T01:43:51.971Z,72.98
2022-11-28T01:44:51.953Z,73.04
2022-11-28T01:45:51.958Z,73.09
2022-11-28T01:46:52.006Z,73.05
2022-11-28T01:47:51.943Z,73.06
2022-11-28T01:48:51.915Z,73.02
2022-11-28T01:49:51.912Z,72.92
2022-11-28T01:50:51.959Z,72.99
2022-11-28T01:51:51.956Z,73.00
2022-11-28T01:52:51.908Z,72.96
2022-11-28T01:53:51.870Z,72.90
2022-11-28T01:54:51.841Z,72.88
2022-11-28T01:55:51.871Z,72.92
2022-11-28T01:56:51.830Z,72.95
2022-11-28T01:57:51.843Z,72.95
2022-11-28T01:58:51.810Z,72.98
2022-11-28T01:59:51.826Z,73.02
2022-11-28T02:00:51.851Z,73.02
2022-11-28T02:01:59.557Z,73.01
2022-11-28T02:02:51.751Z,72.97
2022-11-28T02:03:51.767Z,72.91
2022-11-28T02:04:51.726Z,72.92
2022-11-28T02:05:51.719Z,72.87
2022-11-28T02:06:51.705Z,72.69
2022-11-28T02:07:51.759Z,72.68
2022-11-28T02:08:51.684Z,72.73
2022-11-28T02:09:51.703Z,72.79
2022-11-28T02:10:51.666Z,72.83
2022-11-28T02:11:51.652Z,72.85
2022-11-28T02:12:51.661Z,72.87
2022-11-28T02:13:51.635Z,72.86
2022-11-28T02:15:32.301Z,72.88
2022-11-28T02:15:52.781Z,72.81
2022-11-28T02:16:51.962Z,72.78
2022-11-28T02:17:51.859Z,72.74
2022-11-28T02:18:52.490Z,72.75
2022-11-28T02:19:53.073Z,72.72
2022-11-28T02:20:52.390Z,72.68
2022-11-28T02:21:52.003Z,72.57
2022-11-28T02:22:57.151Z,72.57
2022-11-28T02:24:00.216Z,72.60
2022-11-28T02:24:51.513Z,72.61
2022-11-28T02:25:51.504Z,72.58
2022-11-28T02:26:51.510Z,72.55
2022-11-28T02:27:51.483Z,72.55
2022-11-28T02:28:51.494Z,72.49
2022-11-28T02:29:51.458Z,72.45
2022-11-28T02:30:51.454Z,72.50
2022-11-28T02:31:51.489Z,72.63
2022-11-28T02:32:51.433Z,72.62
2022-11-28T02:33:51.489Z,72.74
2022-11-28T02:34:51.759Z,72.83
2022-11-28T02:35:51.394Z,72.87
2022-11-28T02:36:51.400Z,73.02
2022-11-28T02:37:59.141Z,73.12
2022-11-28T02:38:51.368Z,73.17
2022-11-28T02:39:51.371Z,73.27
2022-11-28T02:40:51.341Z,73.16
2022-11-28T02:41:51.332Z,72.98
2022-11-28T02:42:51.324Z,72.83
2022-11-28T02:43:51.312Z,72.72
2022-11-28T02:44:51.345Z,72.46
2022-11-28T02:45:51.288Z,72.27
2022-11-28T02:46:51.328Z,72.32
2022-11-28T02:47:51.266Z,72.31
2022-11-28T02:48:51.261Z,72.35
2022-11-28T02:49:51.272Z,72.33
2022-11-28T02:50:51.231Z,72.27
2022-11-28T02:51:51.238Z,72.28
2022-11-28T02:52:51.215Z,72.19
2022-11-28T02:53:51.205Z,72.13
2022-11-28T02:54:51.208Z,71.51
2022-11-28T02:55:51.181Z,71.47
2022-11-28T02:56:51.179Z,71.36
2022-11-28T02:57:51.160Z,71.35
2022-11-28T02:58:51.156Z,71.41
2022-11-28T02:59:51.151Z,71.48
2022-11-28T03:00:51.223Z,71.49
2022-11-28T03:01:51.151Z,71.48
2022-11-28T03:02:51.113Z,71.51
2022-11-28T03:03:51.094Z,71.48
2022-11-28T03:04:51.101Z,71.44
2022-11-28T03:05:51.115Z,71.35
2022-11-28T03:06:51.059Z,71.25
2022-11-28T03:07:51.090Z,71.37
2022-11-28T03:08:51.039Z,71.26
2022-11-28T03:09:51.047Z,71.27
2022-11-28T03:10:51.062Z,71.44
2022-11-28T03:11:51.009Z,71.62
2022-11-28T03:12:51.000Z,71.56
2022-11-28T03:13:50.990Z,71.55
2022-11-28T03:14:50.979Z,71.67
2022-11-28T03:15:51.029Z,71.71
2022-11-28T03:16:50.958Z,71.77
2022-11-28T03:17:50.943Z,71.78
2022-11-28T03:18:50.928Z,71.71
2022-11-28T03:19:50.932Z,71.49
2022-11-28T03:20:50.929Z,71.47
2022-11-28T03:21:50.917Z,71.45
2022-11-28T03:22:50.891Z,71.54
2022-11-28T03:23:50.888Z,71.64
2022-11-28T03:24:50.870Z,71.56
2022-11-28T03:25:50.879Z,71.39
2022-11-28T03:26:50.851Z,71.39
2022-11-28T03:27:50.838Z,71.40
2022-11-28T03:28:50.828Z,71.28
2022-11-28T03:29:50.818Z,71.14
2022-11-28T03:30:50.820Z,71.19
2022-11-28T03:31:50.851Z,71.33
2022-11-28T03:32:50.788Z,71.42
2022-11-28T03:33:50.781Z,71.50
2022-11-28T03:34:50.773Z,71.53
2022-11-28T03:35:50.779Z,71.56
2022-11-28T03:36:50.746Z,71.61
2022-11-28T03:37:50.742Z,71.61
2022-11-28T03:38:50.721Z,71.59
2022-11-28T03:39:50.711Z,71.60
2022-11-28T03:40:50.724Z,71.61
2022-11-28T03:41:50.687Z,71.57
2022-11-28T03:42:50.691Z,71.47
2022-11-28T03:43:50.666Z,71.41
2022-11-28T03:44:50.658Z,71.32
2022-11-28T03:45:50.682Z,71.30
2022-11-28T03:46:50.704Z,71.35
2022-11-28T03:47:50.624Z,71.32
2022-11-28T03:48:50.624Z,71.29
2022-11-28T03:49:50.612Z,71.29
2022-11-28T03:50:50.625Z,71.18
2022-11-28T03:51:50.609Z,71.17
2022-11-28T03:52:50.572Z,71.03
2022-11-28T03:53:50.555Z,71.01
2022-11-28T03:54:50.558Z,70.99
2022-11-28T03:55:50.603Z,70.79
2022-11-28T03:56:50.566Z,70.77
2022-11-28T03:57:50.523Z,70.80
2022-11-28T03:58:50.508Z,70.81
2022-11-28T03:59:50.495Z,70.87
2022-11-28T04:00:50.542Z,70.77
2022-11-28T04:01:50.480Z,70.75
2022-11-28T04:02:50.539Z,70.53
2022-11-28T04:03:50.461Z,70.41
2022-11-28T04:04:50.443Z,70.47
2022-11-28T04:05:50.428Z,70.06
2022-11-28T04:06:50.458Z,70.18
2022-11-28T04:07:50.449Z,70.14
2022-11-28T04:08:50.401Z,70.24
2022-11-28T04:09:50.386Z,70.02
2022-11-28T04:10:50.382Z,69.97
2022-11-28T04:11:50.380Z,70.08
2022-11-28T04:12:50.355Z,70.24
2022-11-28T04:13:50.351Z,70.32
2022-11-28T04:14:50.334Z,70.20
2022-11-28T04:15:50.330Z,70.15
2022-11-28T04:16:53.750Z,70.27
2022-11-28T04:17:50.327Z,70.35
2022-11-28T04:18:50.293Z,70.18
2022-11-28T04:19:50.291Z,70.11
2022-11-28T04:20:50.265Z,70.04
2022-11-28T04:21:50.257Z,70.15
2022-11-28T04:22:50.248Z,70.24
2022-11-28T04:23:50.262Z,70.15
2022-11-28T04:24:50.227Z,70.20
2022-11-28T04:25:50.217Z,70.34
2022-11-28T04:26:50.212Z,70.44
2022-11-28T04:27:50.193Z,70.32
2022-11-28T04:28:50.194Z,70.30
2022-11-28T04:29:50.208Z,70.36
2022-11-28T04:30:50.165Z,70.32
2022-11-28T04:31:50.200Z,70.37
2022-11-28T04:32:50.144Z,70.24
2022-11-28T04:33:50.127Z,70.15
2022-11-28T04:34:50.143Z,70.14
2022-11-28T04:35:50.109Z,70.03
2022-11-28T04:36:50.108Z,69.92
2022-11-28T04:37:50.088Z,69.91
2022-11-28T04:38:50.084Z,69.97
2022-11-28T04:39:50.073Z,70.08
2022-11-28T04:40:50.066Z,69.98
2022-11-28T04:41:50.054Z,70.04
2022-11-28T04:42:52.968Z,70.04
2022-11-28T04:43:50.023Z,70.13
2022-11-28T04:44:50.014Z,70.18
2022-11-28T04:45:50.053Z,70.15
2022-11-28T04:46:49.991Z,70.10
2022-11-28T04:47:50.021Z,70.02
2022-11-28T04:48:49.973Z,70.04
2022-11-28T04:49:49.961Z,70.27
2022-11-28T04:50:49.953Z,70.31
2022-11-28T04:51:49.935Z,70.38
2022-11-28T04:52:49.930Z,70.51
2022-11-28T04:53:49.939Z,70.44
2022-11-28T04:54:49.903Z,70.44
2022-11-28T04:55:49.889Z,70.41
2022-11-28T04:56:49.879Z,70.43
2022-11-28T04:57:54.267Z,70.44
2022-11-28T04:58:50.881Z,70.52
2022-11-28T04:59:49.876Z,70.60
2022-11-28T05:00:49.895Z,70.55
2022-11-28T05:01:49.919Z,70.46
2022-11-28T05:02:49.819Z,70.51
2022-11-28T05:03:57.485Z,70.56
2022-11-28T05:04:49.880Z,70.54
2022-11-28T05:05:49.923Z,70.49
2022-11-28T05:06:49.907Z,70.54
2022-11-28T05:07:49.890Z,70.60
2022-11-28T05:08:49.828Z,70.65
2022-11-28T05:09:49.744Z,70.59
2022-11-28T05:10:49.904Z,70.87
2022-11-28T05:11:49.755Z,70.94
2022-11-28T05:12:49.751Z,70.85
2022-11-28T05:13:49.759Z,70.81
2022-11-28T05:14:49.899Z,70.78
2022-11-28T05:15:49.788Z,70.63
2022-11-28T05:16:49.813Z,70.54
2022-11-28T05:17:49.705Z,70.40
2022-11-28T05:18:49.699Z,70.48
2022-11-28T05:19:49.691Z,70.54
2022-11-28T05:20:49.901Z,70.69
2022-11-28T05:21:49.755Z,70.78
2022-11-28T05:22:49.683Z,70.87
2022-11-28T05:23:49.656Z,70.86
2022-11-28T05:24:49.767Z,70.98
2022-11-28T05:25:49.763Z,70.97
2022-11-28T05:26:49.637Z,71.12
2022-11-28T05:27:49.697Z,71.11
2022-11-28T05:28:49.611Z,70.99
2022-11-28T05:29:52.393Z,70.91
2022-11-28T05:30:49.609Z,70.97
2022-11-28T05:31:49.611Z,71.10
2022-11-28T05:32:49.668Z,71.22
2022-11-28T05:33:50.293Z,71.30
2022-11-28T05:34:49.721Z,71.38
2022-11-28T05:35:49.500Z,71.39
2022-11-28T05:36:56.472Z,71.47
2022-11-28T05:37:49.451Z,71.56
2022-11-28T05:38:49.444Z,71.62
2022-11-28T05:39:49.458Z,71.62
2022-11-28T05:40:49.410Z,71.60
2022-11-28T05:41:49.402Z,71.58
2022-11-28T05:42:49.403Z,71.43
2022-11-28T05:43:49.405Z,71.42
2022-11-28T05:44:49.371Z,71.36
2022-11-28T05:45:49.403Z,71.37
2022-11-28T05:46:49.356Z,71.42
2022-11-28T05:47:49.336Z,71.53
2022-11-28T05:48:49.337Z,71.61
2022-11-28T05:49:49.322Z,71.65
2022-11-28T05:50:49.332Z,71.67
2022-11-28T05:51:49.301Z,71.64
2022-11-28T05:52:49.281Z,71.47
2022-11-28T05:53:49.271Z,71.38
2022-11-28T05:54:49.273Z,71.43
2022-11-28T05:55:49.251Z,71.40
2022-11-28T05:56:49.271Z,71.35
2022-11-28T05:57:49.230Z,71.50
2022-11-28T05:58:49.220Z,71.58
2022-11-28T05:59:49.258Z,71.60
2022-11-28T06:00:49.227Z,71.62
2022-11-28T06:01:49.217Z,71.58
2022-11-28T06:02:49.189Z,71.61
2022-11-28T06:03:49.180Z,71.67
2022-11-28T06:04:49.246Z,71.80
2022-11-28T06:05:49.187Z,71.84
2022-11-28T06:06:49.139Z,71.82
2022-11-28T06:07:49.209Z,71.85
2022-11-28T06:08:49.114Z,71.86
2022-11-28T06:09:49.132Z,71.94
2022-11-28T06:10:49.095Z,72.01
2022-11-28T06:11:49.078Z,72.44
2022-11-28T06:12:49.073Z,72.75
2022-11-28T06:13:49.079Z,73.14
2022-11-28T06:14:49.058Z,73.20
2022-11-28T06:15:49.038Z,73.12
2022-11-28T06:16:49.072Z,72.62
2022-11-28T06:17:49.015Z,72.42
2022-11-28T06:18:49.039Z,72.23
2022-11-28T06:19:48.992Z,72.10
2022-11-28T06:20:48.987Z,71.99
2022-11-28T06:21:48.970Z,71.94
2022-11-28T06:22:48.965Z,71.81
2022-11-28T06:23:48.964Z,71.77
2022-11-28T06:24:48.950Z,71.72
2022-11-28T06:25:48.934Z,71.69
2022-11-28T06:26:48.918Z,71.63
2022-11-28T06:27:48.912Z,71.62
2022-11-28T06:28:48.916Z,71.61
2022-11-28T06:29:48.894Z,71.58
2022-11-28T06:30:48.879Z,71.60
2022-11-28T06:31:48.908Z,71.61
2022-11-28T06:32:48.864Z,71.58
2022-11-28T06:33:48.859Z,71.55
2022-11-28T06:34:48.841Z,71.60
2022-11-28T06:35:48.825Z,71.68
2022-11-28T06:36:48.807Z,71.74
2022-11-28T06:37:48.797Z,71.78
2022-11-28T06:38:48.800Z,71.91
2022-11-28T06:39:48.791Z,72.25
2022-11-28T06:40:48.777Z,72.44
2022-11-28T06:41:48.765Z,72.43
2022-11-28T06:42:48.750Z,72.41
2022-11-28T06:43:48.751Z,72.36
2022-11-28T06:44:48.731Z,72.36
2022-11-28T06:45:48.763Z,72.36
2022-11-28T06:46:48.712Z,72.40
2022-11-28T06:47:48.686Z,72.41
2022-11-28T06:48:48.706Z,72.41
2022-11-28T06:49:48.668Z,72.44
2022-11-28T06:50:48.661Z,72.51
2022-11-28T06:51:48.646Z,72.54
2022-11-28T06:52:48.651Z,72.56
2022-11-28T06:53:48.627Z,72.44
2022-11-28T06:54:48.631Z,72.45
2022-11-28T06:55:48.607Z,72.48
2022-11-28T06:56:48.595Z,72.39
2022-11-28T06:57:48.591Z,72.36
2022-11-28T06:58:48.576Z,72.35
2022-11-28T06:59:48.579Z,72.36
2022-11-28T07:00:48.599Z,72.38
2022-11-28T07:01:48.639Z,72.22
2022-11-28T07:02:48.626Z,72.19
2022-11-28T07:03:48.534Z,72.18
2022-11-28T07:04:48.538Z,72.25
2022-11-28T07:05:48.505Z,72.34
2022-11-28T07:06:48.496Z,72.46
2022-11-28T07:07:54.073Z,72.57
2022-11-28T07:08:49.471Z,72.62
2022-11-28T07:09:48.512Z,72.71
2022-11-28T07:10:48.460Z,72.71
2022-11-28T07:11:48.434Z,72.73
2022-11-28T07:12:48.425Z,72.73
2022-11-28T07:13:48.414Z,72.78
2022-11-28T07:14:48.411Z,72.78
2022-11-28T07:15:48.415Z,72.74
2022-11-28T07:16:48.447Z,72.76
2022-11-28T07:17:48.376Z,72.78
2022-11-28T07:18:48.358Z,72.79
2022-11-28T07:19:54.693Z,72.67
2022-11-28T07:20:49.373Z,72.61
2022-11-28T07:21:48.323Z,72.62
2022-11-28T07:22:48.317Z,72.64
2022-11-28T07:23:48.305Z,72.63
2022-11-28T07:24:48.302Z,72.65
2022-11-28T07:25:48.294Z,72.73
2022-11-28T07:26:48.295Z,72.59
2022-11-28T07:27:48.265Z,72.57
2022-11-28T07:28:48.251Z,72.54
2022-11-28T07:29:48.245Z,72.56
2022-11-28T07:30:48.241Z,72.64
2022-11-28T07:31:48.278Z,72.68
2022-11-28T07:32:48.242Z,72.70
2022-11-28T07:33:48.203Z,72.72
2022-11-28T07:34:50.209Z,72.72
2022-11-28T07:35:48.182Z,72.74
2022-11-28T07:36:48.183Z,72.80
2022-11-28T07:37:48.169Z,72.85
2022-11-28T07:38:48.150Z,72.93
2022-11-28T07:39:48.136Z,72.97
2022-11-28T07:40:48.135Z,73.01
2022-11-28T07:41:48.142Z,72.99
2022-11-28T07:42:48.102Z,72.87
2022-11-28T07:43:48.093Z,72.81
2022-11-28T07:44:48.086Z,72.81
2022-11-28T07:46:00.681Z,72.80
2022-11-28T07:46:49.168Z,72.83
2022-11-28T07:47:48.052Z,72.85
2022-11-28T07:48:48.044Z,72.91
2022-11-28T07:49:48.066Z,72.93
2022-11-28T07:50:48.020Z,72.92
2022-11-28T07:51:48.019Z,72.93
2022-11-28T07:52:48.012Z,72.89
2022-11-28T07:53:47.986Z,72.75
2022-11-28T07:54:48.012Z,72.72
2022-11-28T07:55:47.962Z,72.73
2022-11-28T07:57:48.959Z,72.82
2022-11-28T07:58:47.947Z,72.85
2022-11-28T07:59:47.926Z,72.87
2022-11-28T08:00:47.910Z,72.87
2022-11-28T08:01:47.927Z,72.85
2022-11-28T08:02:47.920Z,72.86
2022-11-28T08:03:47.882Z,72.85
2022-11-28T08:04:51.676Z,72.85
2022-11-28T08:05:48.863Z,72.85
2022-11-28T08:06:47.849Z,72.87
2022-11-28T08:07:47.896Z,72.86
2022-11-28T08:08:47.844Z,72.86
2022-11-28T08:09:47.819Z,72.83
2022-11-28T08:10:47.808Z,72.84
2022-11-28T08:11:47.794Z,72.78
2022-11-28T08:12:47.809Z,72.73
2022-11-28T08:13:47.771Z,72.68
2022-11-28T08:14:47.759Z,72.58
2022-11-28T08:15:47.768Z,72.54
2022-11-28T08:16:47.795Z,72.54
2022-11-28T08:17:47.735Z,72.60
2022-11-28T08:18:47.722Z,72.66
2022-11-28T08:19:47.707Z,72.71
2022-11-28T08:20:47.698Z,72.74
2022-11-28T08:21:47.701Z,72.72
2022-11-28T08:22:47.692Z,72.69
2022-11-28T08:23:47.666Z,72.72
2022-11-28T08:24:47.649Z,72.74
2022-11-28T08:25:47.645Z,72.78
2022-11-28T08:26:47.630Z,72.81
2022-11-28T08:27:47.644Z,72.82
2022-11-28T08:28:47.624Z,72.83
2022-11-28T08:29:51.870Z,72.80
2022-11-28T08:30:48.666Z,72.77
2022-11-28T08:31:47.586Z,72.73
2022-11-28T08:32:47.586Z,72.74
2022-11-28T08:33:47.572Z,72.74
2022-11-28T08:34:47.547Z,72.72
2022-11-28T08:35:47.538Z,72.70
2022-11-28T08:36:47.547Z,72.66
2022-11-28T08:37:47.516Z,72.61
2022-11-28T08:39:03.281Z,72.58
2022-11-28T08:39:48.495Z,72.56
2022-11-28T08:40:47.488Z,72.62
2022-11-28T08:41:47.487Z,72.59
2022-11-28T08:42:47.473Z,72.62
2022-11-28T08:43:47.467Z,72.62
2022-11-28T08:44:47.448Z,72.64
2022-11-28T08:45:47.463Z,72.67
2022-11-28T08:46:47.453Z,72.70
2022-11-28T08:47:47.410Z,72.70
2022-11-28T08:48:47.399Z,72.69
2022-11-28T08:49:47.390Z,72.61
2022-11-28T08:50:48.249Z,72.57
2022-11-28T08:51:47.367Z,72.58
2022-11-28T08:52:47.365Z,72.62
2022-11-28T08:53:49.309Z,72.61
2022-11-28T08:54:47.334Z,72.60
2022-11-28T08:55:47.319Z,72.56
2022-11-28T08:56:47.320Z,72.58
2022-11-28T08:57:47.314Z,72.51
2022-11-28T08:58:47.308Z,72.32
2022-11-28T08:59:47.281Z,72.23
2022-11-28T09:00:47.276Z,72.24
2022-11-28T09:01:47.297Z,72.26
2022-11-28T09:02:47.243Z,72.28
2022-11-28T09:03:47.333Z,72.31
2022-11-28T09:04:47.234Z,72.38
2022-11-28T09:05:47.216Z,72.42
2022-11-28T09:06:47.208Z,72.32
2022-11-28T09:07:47.253Z,72.32
2022-11-28T09:08:47.213Z,72.38
2022-11-28T09:09:47.437Z,72.44
2022-11-28T09:10:47.164Z,72.54
2022-11-28T09:11:47.166Z,72.58
2022-11-28T09:12:47.142Z,72.66
2022-11-28T09:13:47.142Z,72.74
2022-11-28T09:14:47.122Z,72.86
2022-11-28T09:15:50.046Z,72.99
2022-11-28T09:16:48.115Z,73.08
2022-11-28T09:17:47.097Z,73.15
2022-11-28T09:18:47.095Z,73.20
2022-11-28T09:19:47.061Z,73.28
2022-11-28T09:20:47.065Z,73.34
2022-11-28T09:21:47.036Z,73.40
2022-11-28T09:22:47.024Z,73.39
2022-11-28T09:23:47.042Z,73.50
2022-11-28T09:24:47.010Z,73.55
2022-11-28T09:25:46.998Z,73.59
2022-11-28T09:26:46.994Z,73.66
2022-11-28T09:27:46.982Z,73.71
2022-11-28T09:28:46.998Z,73.74
2022-11-28T09:29:46.957Z,73.72
2022-11-28T09:30:47.033Z,73.70
2022-11-28T09:31:47.671Z,73.74
2022-11-28T09:32:46.929Z,73.82
2022-11-28T09:33:46.931Z,73.89
2022-11-28T09:34:46.931Z,73.93
2022-11-28T09:35:46.896Z,73.93
2022-11-28T09:36:46.935Z,73.94
2022-11-28T09:37:46.865Z,73.92
2022-11-28T09:38:46.900Z,73.90
2022-11-28T09:40:11.492Z,73.88
2022-11-28T09:40:47.843Z,73.86
2022-11-28T09:41:46.829Z,73.87
2022-11-28T09:42:46.820Z,73.84
2022-11-28T09:43:49.664Z,73.81
2022-11-28T09:44:47.797Z,73.73
2022-11-28T09:45:46.824Z,73.69
2022-11-28T09:46:46.813Z,73.66
2022-11-28T09:47:46.762Z,73.69
2022-11-28T09:48:46.771Z,73.75
2022-11-28T09:49:47.388Z,73.77
2022-11-28T09:50:46.728Z,73.76
2022-11-28T09:51:46.720Z,73.81
2022-11-28T09:52:46.814Z,73.80
2022-11-28T09:53:46.726Z,73.85
2022-11-28T09:54:46.711Z,73.91
2022-11-28T09:55:46.680Z,73.94
2022-11-28T09:56:46.723Z,74.01
2022-11-28T09:57:46.649Z,74.06
2022-11-28T09:58:46.681Z,74.14
2022-11-28T09:59:46.636Z,74.23
2022-11-28T10:00:49.290Z,74.22
2022-11-28T10:01:46.629Z,74.23
2022-11-28T10:02:46.603Z,74.21
2022-11-28T10:03:46.639Z,74.23
2022-11-28T10:04:46.577Z,74.33
2022-11-28T10:05:46.568Z,74.40
2022-11-28T10:06:46.567Z,74.41
2022-11-28T10:07:49.030Z,74.57
2022-11-28T10:08:47.556Z,74.66
2022-11-28T10:09:46.540Z,74.71
2022-11-28T10:10:46.517Z,74.69
2022-11-28T10:11:46.507Z,74.72
2022-11-28T10:12:46.495Z,74.71
2022-11-28T10:14:07.120Z,74.78
2022-11-28T10:14:47.477Z,74.88
2022-11-28T10:15:46.468Z,74.88
2022-11-28T10:16:46.550Z,74.85
2022-11-28T10:17:46.438Z,74.88
2022-11-28T10:18:46.457Z,74.84
2022-11-28T10:19:54.379Z,74.81
2022-11-28T10:20:47.416Z,74.81
2022-11-28T10:21:46.398Z,74.81
2022-11-28T10:22:46.388Z,74.80
2022-11-28T10:23:46.376Z,74.71
2022-11-28T10:24:46.387Z,74.69
2022-11-28T10:25:46.357Z,74.62
2022-11-28T10:26:46.345Z,74.56
2022-11-28T10:27:46.336Z,74.58
2022-11-28T10:28:46.327Z,74.58
2022-11-28T10:29:46.468Z,74.61
2022-11-28T10:30:46.378Z,74.58
2022-11-28T10:31:46.296Z,74.62
2022-11-28T10:32:46.275Z,74.60
2022-11-28T10:33:46.334Z,74.58
2022-11-28T10:34:46.277Z,74.55
2022-11-28T10:35:46.266Z,74.53
2022-11-28T10:36:46.236Z,74.55
2022-11-28T10:37:46.233Z,74.50
2022-11-28T10:38:46.234Z,74.43
2022-11-28T10:39:46.211Z,74.28
2022-11-28T10:40:46.194Z,74.25
2022-11-28T10:41:46.181Z,74.18
2022-11-28T10:42:46.188Z,74.09
2022-11-28T10:43:46.175Z,74.08
2022-11-28T10:44:46.147Z,74.07
2022-11-28T10:45:46.162Z,74.08
2022-11-28T10:46:46.145Z,74.04
2022-11-28T10:47:46.153Z,73.97
2022-11-28T10:48:46.122Z,73.93
2022-11-28T10:49:46.113Z,73.92
2022-11-28T10:50:46.084Z,73.72
2022-11-28T10:51:46.083Z,72.66
2022-11-28T10:52:46.077Z,71.60
2022-11-28T10:53:46.072Z,70.51
2022-11-28T10:54:46.060Z,69.94
2022-11-28T10:55:46.034Z,69.63
2022-11-28T10:56:46.023Z,69.38
2022-11-28T10:57:46.062Z,68.90
2022-11-28T10:58:46.023Z,68.60
2022-11-28T10:59:46.031Z,68.55
2022-11-28T11:00:45.979Z,68.69
2022-11-28T11:01:50.149Z,68.94
2022-11-28T11:02:45.965Z,68.99
2022-11-28T11:03:46.014Z,68.98
2022-11-28T11:04:45.996Z,68.98
2022-11-28T11:05:45.949Z,68.55
2022-11-28T11:07:06.908Z,68.35
2022-11-28T11:07:46.925Z,68.26
2022-11-28T11:08:45.902Z,68.37
2022-11-28T11:09:46.065Z,68.48
2022-11-28T11:10:45.886Z,68.51
2022-11-28T11:11:45.872Z,68.26
2022-11-28T11:12:45.852Z,68.20
2022-11-28T11:13:45.843Z,68.38
2022-11-28T11:14:45.855Z,68.24
2022-11-28T11:15:45.870Z,68.39
2022-11-28T11:16:45.821Z,68.12
2022-11-28T11:17:45.797Z,68.13
2022-11-28T11:18:45.794Z,68.04
2022-11-28T11:19:45.926Z,67.99
2022-11-28T11:20:45.800Z,67.78
2022-11-28T11:21:45.750Z,67.88
2022-11-28T11:22:46.209Z,67.78
2022-11-28T11:23:45.737Z,67.79
2022-11-28T11:24:45.720Z,67.77
2022-11-28T11:25:45.716Z,67.78
2022-11-28T11:26:45.739Z,67.51
2022-11-28T11:27:45.691Z,67.36
2022-11-28T11:28:45.679Z,67.18
2022-11-28T11:29:48.250Z,66.91
2022-11-28T11:30:45.726Z,67.08
2022-11-28T11:31:45.650Z,67.16
2022-11-28T11:32:51.107Z,67.21
2022-11-28T11:33:46.631Z,67.48
2022-11-28T11:34:45.609Z,67.57
2022-11-28T11:35:45.630Z,67.40
2022-11-28T11:36:45.589Z,67.39
2022-11-28T11:37:45.591Z,67.45
2022-11-28T11:38:45.573Z,67.39
2022-11-28T11:39:45.581Z,67.45
2022-11-28T11:40:45.550Z,67.41
2022-11-28T11:41:45.557Z,67.32
2022-11-28T11:42:45.529Z,67.41
2022-11-28T11:43:45.519Z,67.53
2022-11-28T11:44:45.513Z,67.57
2022-11-28T11:45:51.112Z,67.72
2022-11-28T11:46:46.574Z,67.51
2022-11-28T11:47:45.469Z,67.60
2022-11-28T11:48:45.469Z,67.48
2022-11-28T11:49:45.731Z,67.36
2022-11-28T11:51:39.606Z,67.24
2022-11-28T11:52:38.900Z,67.35
2022-11-28T11:53:39.035Z,67.51
2022-11-28T11:54:38.877Z,67.55
2022-11-28T11:55:38.879Z,67.52
2022-11-28T11:56:38.897Z,67.60
2022-11-28T11:57:38.844Z,67.63
2022-11-28T11:58:38.837Z,67.59
2022-11-28T11:59:38.824Z,67.66
2022-11-28T12:00:38.834Z,67.74
2022-11-28T12:01:38.813Z,67.78
2022-11-28T12:02:38.881Z,67.74
2022-11-28T12:03:38.893Z,67.71
2022-11-28T12:04:45.853Z,67.81
2022-11-28T12:06:06.077Z,67.81
2022-11-28T12:06:39.826Z,67.87
2022-11-28T12:07:38.803Z,68.01
2022-11-28T12:08:38.728Z,68.13
2022-11-28T12:09:38.718Z,68.19
2022-11-28T12:10:38.698Z,68.27
2022-11-28T12:11:43.805Z,68.34
2022-11-28T12:12:39.725Z,68.29
2022-11-28T12:13:38.667Z,68.32
2022-11-28T12:14:38.661Z,67.88
2022-11-28T12:15:38.693Z,67.69
2022-11-28T12:16:38.706Z,67.71
2022-11-28T12:17:58.599Z,67.78
2022-11-28T12:18:39.613Z,67.78
2022-11-28T12:19:38.609Z,67.82
2022-11-28T12:20:38.594Z,67.88
2022-11-28T12:21:38.606Z,67.65
2022-11-28T12:22:38.587Z,67.52
2022-11-28T12:23:38.583Z,67.56
2022-11-28T12:24:38.553Z,67.54
2022-11-28T12:25:38.561Z,67.15
2022-11-28T12:26:38.568Z,66.96
2022-11-28T12:27:38.546Z,66.88
2022-11-28T12:28:38.541Z,66.92
2022-11-28T12:29:38.506Z,66.93
2022-11-28T12:30:40.457Z,66.89
2022-11-28T12:31:38.496Z,66.90
2022-11-28T12:32:38.476Z,66.88
2022-11-28T12:33:38.476Z,67.01
2022-11-28T12:34:38.479Z,66.96
2022-11-28T12:35:38.440Z,66.95
2022-11-28T12:36:38.491Z,67.05
2022-11-28T12:38:09.161Z,67.14
2022-11-28T12:38:39.416Z,67.14
2022-11-28T12:39:38.393Z,67.31
2022-11-28T12:40:38.377Z,67.16
2022-11-28T12:41:38.366Z,67.22
2022-11-28T12:42:38.394Z,67.28
2022-11-28T12:43:38.337Z,67.38
2022-11-28T12:44:38.342Z,67.52
2022-11-28T12:45:38.322Z,67.74
2022-11-28T12:46:38.433Z,67.95
2022-11-28T12:47:38.306Z,68.00
2022-11-28T12:48:38.317Z,67.97
2022-11-28T12:49:38.279Z,67.93
2022-11-28T12:50:38.279Z,68.06
2022-11-28T12:51:38.269Z,68.19
2022-11-28T12:52:38.251Z,68.24
2022-11-28T12:53:38.243Z,68.20
2022-11-28T12:54:38.415Z,68.27